sensor_id;sensor_type;location;lat;lon;timestamp;P1;durP1;ratioP1;P2;durP2;ratioP2
5710;SDS011;61291;52.524;13.422;2023-02-15T00:01:47;87.00;;;75.83;;
5710;SDS011;61291;52.524;13.422;2023-02-15T00:04:14;86.37;;;76.90;;
5710;SDS011;61291;52.524;13.422;2023-02-15T00:06:41;90.67;;;81.17;;
5710;SDS011;61291;52.524;13.422;2023-02-15T00:09:07;92.27;;;80.07;;
5710;SDS011;61291;52.524;13.422;2023-02-15T00:11:34;86.33;;;77.50;;
5710;SDS011;61291;52.524;13.422;2023-02-15T00:14:15;92.93;;;82.10;;
5710;SDS011;61291;52.524;13.422;2023-02-15T00:16:43;85.67;;;76.60;;
5710;SDS011;61291;52.524;13.422;2023-02-15T00:19:09;89.97;;;78.00;;
5710;SDS011;61291;52.524;13.422;2023-02-15T00:21:37;95.73;;;80.33;;
5710;SDS011;61291;52.524;13.422;2023-02-15T00:24:04;97.27;;;83.43;;
5710;SDS011;61291;52.524;13.422;2023-02-15T00:26:31;105.70;;;76.03;;
5710;SDS011;61291;52.524;13.422;2023-02-15T00:28:57;105.40;;;85.57;;
5710;SDS011;61291;52.524;13.422;2023-02-15T00:31:24;107.07;;;84.60;;
5710;SDS011;61291;52.524;13.422;2023-02-15T00:33:50;97.33;;;82.47;;
5710;SDS011;61291;52.524;13.422;2023-02-15T00:36:16;103.63;;;81.33;;
5710;SDS011;61291;52.524;13.422;2023-02-15T00:38:41;99.33;;;80.80;;
5710;SDS011;61291;52.524;13.422;2023-02-15T00:41:07;101.20;;;82.10;;
5710;SDS011;61291;52.524;13.422;2023-02-15T00:43:34;110.77;;;85.63;;
5710;SDS011;61291;52.524;13.422;2023-02-15T00:46:00;108.37;;;84.27;;
5710;SDS011;61291;52.524;13.422;2023-02-15T00:48:27;115.63;;;82.30;;
5710;SDS011;61291;52.524;13.422;2023-02-15T00:50:53;117.67;;;83.93;;
5710;SDS011;61291;52.524;13.422;2023-02-15T00:53:20;122.40;;;85.87;;
5710;SDS011;61291;52.524;13.422;2023-02-15T00:55:46;117.83;;;85.37;;
5710;SDS011;61291;52.524;13.422;2023-02-15T00:58:12;124.17;;;84.90;;
5710;SDS011;61291;52.524;13.422;2023-02-15T01:00:38;103.20;;;81.30;;
5710;SDS011;61291;52.524;13.422;2023-02-15T01:03:05;100.90;;;80.97;;
5710;SDS011;61291;52.524;13.422;2023-02-15T01:05:31;116.50;;;83.40;;
5710;SDS011;61291;52.524;13.422;2023-02-15T01:07:57;105.40;;;77.50;;
5710;SDS011;61291;52.524;13.422;2023-02-15T01:10:24;102.03;;;82.30;;
5710;SDS011;61291;52.524;13.422;2023-02-15T01:12:50;110.00;;;79.63;;
5710;SDS011;61291;52.524;13.422;2023-02-15T01:15:16;124.97;;;87.10;;
5710;SDS011;61291;52.524;13.422;2023-02-15T01:17:42;97.67;;;84.63;;
5710;SDS011;61291;52.524;13.422;2023-02-15T01:20:10;100.10;;;83.30;;
5710;SDS011;61291;52.524;13.422;2023-02-15T01:22:36;104.90;;;83.43;;
5710;SDS011;61291;52.524;13.422;2023-02-15T01:25:02;107.60;;;81.53;;
5710;SDS011;61291;52.524;13.422;2023-02-15T01:27:28;108.70;;;81.17;;
5710;SDS011;61291;52.524;13.422;2023-02-15T01:29:55;111.07;;;85.30;;
5710;SDS011;61291;52.524;13.422;2023-02-15T01:32:21;102.07;;;81.60;;
5710;SDS011;61291;52.524;13.422;2023-02-15T01:34:46;103.47;;;80.70;;
5710;SDS011;61291;52.524;13.422;2023-02-15T01:37:12;102.97;;;81.63;;
5710;SDS011;61291;52.524;13.422;2023-02-15T01:39:37;114.87;;;83.13;;
5710;SDS011;61291;52.524;13.422;2023-02-15T01:42:03;111.83;;;82.70;;
5710;SDS011;61291;52.524;13.422;2023-02-15T01:44:45;107.73;;;81.83;;
5710;SDS011;61291;52.524;13.422;2023-02-15T01:47:22;114.23;;;83.30;;
5710;SDS011;61291;52.524;13.422;2023-02-15T01:49:58;117.57;;;81.83;;
5710;SDS011;61291;52.524;13.422;2023-02-15T01:52:28;118.57;;;84.07;;
5710;SDS011;61291;52.524;13.422;2023-02-15T01:54:54;121.47;;;78.17;;
5710;SDS011;61291;52.524;13.422;2023-02-15T01:57:21;114.17;;;81.60;;
5710;SDS011;61291;52.524;13.422;2023-02-15T01:59:50;112.40;;;83.40;;
5710;SDS011;61291;52.524;13.422;2023-02-15T02:02:23;120.87;;;82.67;;
5710;SDS011;61291;52.524;13.422;2023-02-15T02:04:51;118.07;;;81.07;;
5710;SDS011;61291;52.524;13.422;2023-02-15T02:07:22;135.10;;;84.47;;
5710;SDS011;61291;52.524;13.422;2023-02-15T02:09:51;118.93;;;82.70;;
5710;SDS011;61291;52.524;13.422;2023-02-15T02:12:17;110.07;;;80.07;;
5710;SDS011;61291;52.524;13.422;2023-02-15T02:14:46;129.67;;;81.30;;
5710;SDS011;61291;52.524;13.422;2023-02-15T02:17:17;113.83;;;83.40;;
5710;SDS011;61291;52.524;13.422;2023-02-15T02:20:10;119.93;;;82.50;;
5710;SDS011;61291;52.524;13.422;2023-02-15T02:23:02;111.20;;;80.97;;
5710;SDS011;61291;52.524;13.422;2023-02-15T02:28:22;118.70;;;84.50;;
5710;SDS011;61291;52.524;13.422;2023-02-15T02:31:25;110.63;;;86.37;;
5710;SDS011;61291;52.524;13.422;2023-02-15T02:34:29;124.00;;;87.37;;
5710;SDS011;61291;52.524;13.422;2023-02-15T02:36:58;111.50;;;81.20;;
5710;SDS011;61291;52.524;13.422;2023-02-15T02:39:49;129.43;;;87.40;;
5710;SDS011;61291;52.524;13.422;2023-02-15T02:42:26;125.10;;;87.60;;
5710;SDS011;61291;52.524;13.422;2023-02-15T02:45:04;129.70;;;83.20;;
5710;SDS011;61291;52.524;13.422;2023-02-15T02:47:38;131.47;;;88.90;;
5710;SDS011;61291;52.524;13.422;2023-02-15T02:50:10;123.10;;;84.33;;
5710;SDS011;61291;52.524;13.422;2023-02-15T02:52:43;133.60;;;86.57;;
5710;SDS011;61291;52.524;13.422;2023-02-15T02:55:25;135.43;;;86.27;;
5710;SDS011;61291;52.524;13.422;2023-02-15T02:58:01;138.20;;;83.47;;
5710;SDS011;61291;52.524;13.422;2023-02-15T03:00:29;127.13;;;88.00;;
5710;SDS011;61291;52.524;13.422;2023-02-15T03:03:09;155.10;;;86.67;;
5710;SDS011;61291;52.524;13.422;2023-02-15T03:05:45;144.10;;;85.60;;
5710;SDS011;61291;52.524;13.422;2023-02-15T03:08:15;133.60;;;88.63;;
5710;SDS011;61291;52.524;13.422;2023-02-15T03:10:47;144.90;;;90.10;;
5710;SDS011;61291;52.524;13.422;2023-02-15T03:13:15;146.10;;;87.40;;
5710;SDS011;61291;52.524;13.422;2023-02-15T03:15:41;156.97;;;85.30;;
5710;SDS011;61291;52.524;13.422;2023-02-15T03:18:29;206.90;;;92.10;;
5710;SDS011;61291;52.524;13.422;2023-02-15T03:20:59;188.37;;;97.50;;
5710;SDS011;61291;52.524;13.422;2023-02-15T03:23:27;191.70;;;92.00;;
5710;SDS011;61291;52.524;13.422;2023-02-15T03:25:57;200.43;;;100.50;;
5710;SDS011;61291;52.524;13.422;2023-02-15T03:28:27;200.23;;;94.43;;
5710;SDS011;61291;52.524;13.422;2023-02-15T03:30:59;201.20;;;94.70;;
5710;SDS011;61291;52.524;13.422;2023-02-15T03:33:28;183.07;;;97.47;;
5710;SDS011;61291;52.524;13.422;2023-02-15T03:35:57;189.90;;;98.20;;
5710;SDS011;61291;52.524;13.422;2023-02-15T03:38:36;209.70;;;102.00;;
5710;SDS011;61291;52.524;13.422;2023-02-15T03:41:09;202.03;;;96.67;;
5710;SDS011;61291;52.524;13.422;2023-02-15T03:43:40;211.30;;;98.67;;
5710;SDS011;61291;52.524;13.422;2023-02-15T03:46:12;215.43;;;99.90;;
5710;SDS011;61291;52.524;13.422;2023-02-15T03:48:53;229.20;;;101.50;;
5710;SDS011;61291;52.524;13.422;2023-02-15T03:51:26;214.60;;;102.47;;
5710;SDS011;61291;52.524;13.422;2023-02-15T03:54:10;237.57;;;98.63;;
5710;SDS011;61291;52.524;13.422;2023-02-15T03:56:59;238.07;;;103.43;;
5710;SDS011;61291;52.524;13.422;2023-02-15T03:59:45;235.63;;;105.17;;
5710;SDS011;61291;52.524;13.422;2023-02-15T04:02:30;340.93;;;117.90;;
5710;SDS011;61291;52.524;13.422;2023-02-15T04:05:20;321.03;;;118.73;;
5710;SDS011;61291;52.524;13.422;2023-02-15T04:07:46;252.73;;;108.80;;
5710;SDS011;61291;52.524;13.422;2023-02-15T04:10:11;248.87;;;106.33;;
5710;SDS011;61291;52.524;13.422;2023-02-15T04:12:56;245.47;;;101.73;;
5710;SDS011;61291;52.524;13.422;2023-02-15T04:15:21;232.67;;;103.37;;
5710;SDS011;61291;52.524;13.422;2023-02-15T04:18:06;228.63;;;104.90;;
5710;SDS011;61291;52.524;13.422;2023-02-15T04:20:31;248.43;;;102.53;;
5710;SDS011;61291;52.524;13.422;2023-02-15T04:23:15;254.93;;;105.43;;
5710;SDS011;61291;52.524;13.422;2023-02-15T04:26:02;230.50;;;101.83;;
5710;SDS011;61291;52.524;13.422;2023-02-15T04:28:29;263.80;;;103.53;;
5710;SDS011;61291;52.524;13.422;2023-02-15T04:30:54;225.00;;;112.00;;
5710;SDS011;61291;52.524;13.422;2023-02-15T04:33:20;246.47;;;106.57;;
5710;SDS011;61291;52.524;13.422;2023-02-15T04:35:45;203.20;;;101.47;;
5710;SDS011;61291;52.524;13.422;2023-02-15T04:38:11;240.93;;;103.00;;
5710;SDS011;61291;52.524;13.422;2023-02-15T04:40:36;237.87;;;105.03;;
5710;SDS011;61291;52.524;13.422;2023-02-15T04:43:02;216.53;;;100.33;;
5710;SDS011;61291;52.524;13.422;2023-02-15T04:45:27;207.13;;;100.87;;
5710;SDS011;61291;52.524;13.422;2023-02-15T04:47:53;247.63;;;107.90;;
5710;SDS011;61291;52.524;13.422;2023-02-15T04:50:18;207.20;;;97.07;;
5710;SDS011;61291;52.524;13.422;2023-02-15T04:52:44;195.33;;;101.40;;
5710;SDS011;61291;52.524;13.422;2023-02-15T04:55:09;227.23;;;106.20;;
5710;SDS011;61291;52.524;13.422;2023-02-15T04:57:35;224.63;;;105.33;;
5710;SDS011;61291;52.524;13.422;2023-02-15T05:00:00;216.20;;;99.17;;
5710;SDS011;61291;52.524;13.422;2023-02-15T05:02:26;221.73;;;97.50;;
5710;SDS011;61291;52.524;13.422;2023-02-15T05:04:51;210.10;;;96.00;;
5710;SDS011;61291;52.524;13.422;2023-02-15T05:07:17;218.23;;;94.60;;
5710;SDS011;61291;52.524;13.422;2023-02-15T05:09:45;216.87;;;102.03;;
5710;SDS011;61291;52.524;13.422;2023-02-15T05:12:10;222.13;;;103.77;;
5710;SDS011;61291;52.524;13.422;2023-02-15T05:14:36;217.90;;;101.50;;
5710;SDS011;61291;52.524;13.422;2023-02-15T05:17:01;229.47;;;105.90;;
5710;SDS011;61291;52.524;13.422;2023-02-15T05:19:28;221.07;;;103.80;;
5710;SDS011;61291;52.524;13.422;2023-02-15T05:21:54;232.37;;;103.67;;
5710;SDS011;61291;52.524;13.422;2023-02-15T05:24:19;195.50;;;106.47;;
5710;SDS011;61291;52.524;13.422;2023-02-15T05:27:04;233.27;;;102.70;;
5710;SDS011;61291;52.524;13.422;2023-02-15T05:29:48;209.23;;;103.50;;
5710;SDS011;61291;52.524;13.422;2023-02-15T05:32:14;216.53;;;99.97;;
5710;SDS011;61291;52.524;13.422;2023-02-15T05:34:40;224.43;;;101.50;;
5710;SDS011;61291;52.524;13.422;2023-02-15T05:37:05;218.33;;;101.27;;
5710;SDS011;61291;52.524;13.422;2023-02-15T05:39:32;186.87;;;96.17;;
5710;SDS011;61291;52.524;13.422;2023-02-15T05:41:58;199.27;;;100.67;;
5710;SDS011;61291;52.524;13.422;2023-02-15T05:44:24;241.80;;;103.43;;
5710;SDS011;61291;52.524;13.422;2023-02-15T05:46:50;200.77;;;103.17;;
5710;SDS011;61291;52.524;13.422;2023-02-15T05:49:15;250.47;;;108.07;;
5710;SDS011;61291;52.524;13.422;2023-02-15T05:51:41;220.50;;;105.60;;
5710;SDS011;61291;52.524;13.422;2023-02-15T05:54:06;260.53;;;106.53;;
5710;SDS011;61291;52.524;13.422;2023-02-15T05:56:32;269.50;;;103.00;;
5710;SDS011;61291;52.524;13.422;2023-02-15T05:58:58;263.43;;;107.60;;
5710;SDS011;61291;52.524;13.422;2023-02-15T06:01:23;244.20;;;103.37;;
5710;SDS011;61291;52.524;13.422;2023-02-15T06:03:48;234.63;;;106.80;;
5710;SDS011;61291;52.524;13.422;2023-02-15T06:06:14;266.30;;;105.07;;
5710;SDS011;61291;52.524;13.422;2023-02-15T06:08:40;234.20;;;102.23;;
5710;SDS011;61291;52.524;13.422;2023-02-15T06:11:06;202.63;;;97.53;;
5710;SDS011;61291;52.524;13.422;2023-02-15T06:13:32;237.27;;;98.03;;
5710;SDS011;61291;52.524;13.422;2023-02-15T06:15:58;245.70;;;103.10;;
5710;SDS011;61291;52.524;13.422;2023-02-15T06:18:23;223.77;;;101.87;;
5710;SDS011;61291;52.524;13.422;2023-02-15T06:20:50;247.03;;;105.00;;
5710;SDS011;61291;52.524;13.422;2023-02-15T06:23:16;250.97;;;98.87;;
5710;SDS011;61291;52.524;13.422;2023-02-15T06:25:42;212.87;;;100.07;;
5710;SDS011;61291;52.524;13.422;2023-02-15T06:28:08;240.07;;;113.43;;
5710;SDS011;61291;52.524;13.422;2023-02-15T06:30:34;212.83;;;99.30;;
5710;SDS011;61291;52.524;13.422;2023-02-15T06:32:59;240.67;;;105.63;;
5710;SDS011;61291;52.524;13.422;2023-02-15T06:35:25;220.63;;;99.07;;
5710;SDS011;61291;52.524;13.422;2023-02-15T06:37:51;226.00;;;106.17;;
5710;SDS011;61291;52.524;13.422;2023-02-15T06:40:16;214.03;;;102.63;;
5710;SDS011;61291;52.524;13.422;2023-02-15T06:42:42;222.13;;;101.43;;
5710;SDS011;61291;52.524;13.422;2023-02-15T06:45:08;197.57;;;96.77;;
5710;SDS011;61291;52.524;13.422;2023-02-15T06:47:35;217.50;;;101.70;;
5710;SDS011;61291;52.524;13.422;2023-02-15T06:50:01;221.30;;;94.17;;
5710;SDS011;61291;52.524;13.422;2023-02-15T06:52:26;208.03;;;97.63;;
5710;SDS011;61291;52.524;13.422;2023-02-15T06:54:53;222.93;;;101.90;;
5710;SDS011;61291;52.524;13.422;2023-02-15T06:57:18;232.57;;;105.07;;
5710;SDS011;61291;52.524;13.422;2023-02-15T06:59:44;219.43;;;104.73;;
5710;SDS011;61291;52.524;13.422;2023-02-15T07:02:12;255.50;;;103.57;;
5710;SDS011;61291;52.524;13.422;2023-02-15T07:04:39;242.80;;;104.77;;
5710;SDS011;61291;52.524;13.422;2023-02-15T07:07:07;301.93;;;108.37;;
5710;SDS011;61291;52.524;13.422;2023-02-15T07:09:34;204.70;;;107.73;;
5710;SDS011;61291;52.524;13.422;2023-02-15T07:11:59;296.00;;;112.37;;
5710;SDS011;61291;52.524;13.422;2023-02-15T07:14:43;220.13;;;107.50;;
5710;SDS011;61291;52.524;13.422;2023-02-15T07:17:09;298.47;;;105.37;;
5710;SDS011;61291;52.524;13.422;2023-02-15T07:19:34;238.10;;;107.27;;
5710;SDS011;61291;52.524;13.422;2023-02-15T07:21:59;282.37;;;104.83;;
5710;SDS011;61291;52.524;13.422;2023-02-15T07:24:25;259.40;;;105.67;;
5710;SDS011;61291;52.524;13.422;2023-02-15T07:26:50;218.40;;;103.10;;
5710;SDS011;61291;52.524;13.422;2023-02-15T07:29:16;234.67;;;104.87;;
5710;SDS011;61291;52.524;13.422;2023-02-15T07:31:42;247.07;;;104.07;;
5710;SDS011;61291;52.524;13.422;2023-02-15T07:34:10;204.90;;;98.60;;
5710;SDS011;61291;52.524;13.422;2023-02-15T07:36:35;192.67;;;102.70;;
5710;SDS011;61291;52.524;13.422;2023-02-15T07:39:01;289.70;;;105.43;;
5710;SDS011;61291;52.524;13.422;2023-02-15T07:41:27;254.37;;;105.67;;
5710;SDS011;61291;52.524;13.422;2023-02-15T07:43:52;193.40;;;107.80;;
5710;SDS011;61291;52.524;13.422;2023-02-15T07:46:18;218.53;;;108.93;;
5710;SDS011;61291;52.524;13.422;2023-02-15T07:48:44;175.47;;;103.30;;
5710;SDS011;61291;52.524;13.422;2023-02-15T07:51:10;192.10;;;103.80;;
5710;SDS011;61291;52.524;13.422;2023-02-15T07:53:37;167.70;;;97.17;;
5710;SDS011;61291;52.524;13.422;2023-02-15T07:56:04;167.07;;;93.80;;
5710;SDS011;61291;52.524;13.422;2023-02-15T07:58:37;165.13;;;100.10;;
5710;SDS011;61291;52.524;13.422;2023-02-15T08:01:15;167.87;;;100.50;;
5710;SDS011;61291;52.524;13.422;2023-02-15T08:03:52;143.97;;;93.20;;
5710;SDS011;61291;52.524;13.422;2023-02-15T08:06:19;152.37;;;99.67;;
5710;SDS011;61291;52.524;13.422;2023-02-15T08:08:45;154.23;;;94.20;;
5710;SDS011;61291;52.524;13.422;2023-02-15T08:13:56;141.97;;;93.50;;
5710;SDS011;61291;52.524;13.422;2023-02-15T08:19:15;149.50;;;99.73;;
5710;SDS011;61291;52.524;13.422;2023-02-15T08:21:46;154.17;;;93.37;;
5710;SDS011;61291;52.524;13.422;2023-02-15T08:24:14;158.80;;;96.00;;
5710;SDS011;61291;52.524;13.422;2023-02-15T08:26:42;156.50;;;91.50;;
5710;SDS011;61291;52.524;13.422;2023-02-15T08:29:09;151.50;;;97.90;;
5710;SDS011;61291;52.524;13.422;2023-02-15T08:31:35;147.93;;;96.10;;
5710;SDS011;61291;52.524;13.422;2023-02-15T08:34:02;139.40;;;95.67;;
5710;SDS011;61291;52.524;13.422;2023-02-15T08:36:29;150.87;;;98.23;;
5710;SDS011;61291;52.524;13.422;2023-02-15T08:38:59;144.87;;;98.40;;
5710;SDS011;61291;52.524;13.422;2023-02-15T08:41:36;144.40;;;98.67;;
5710;SDS011;61291;52.524;13.422;2023-02-15T08:44:06;156.47;;;98.13;;
5710;SDS011;61291;52.524;13.422;2023-02-15T08:46:34;139.00;;;104.60;;
5710;SDS011;61291;52.524;13.422;2023-02-15T08:49:01;142.13;;;97.17;;
5710;SDS011;61291;52.524;13.422;2023-02-15T08:51:28;139.83;;;97.53;;
5710;SDS011;61291;52.524;13.422;2023-02-15T08:53:56;144.20;;;97.97;;
5710;SDS011;61291;52.524;13.422;2023-02-15T08:56:24;148.70;;;98.53;;
5710;SDS011;61291;52.524;13.422;2023-02-15T08:58:54;135.73;;;93.73;;
5710;SDS011;61291;52.524;13.422;2023-02-15T09:01:25;134.27;;;98.20;;
5710;SDS011;61291;52.524;13.422;2023-02-15T09:03:58;128.33;;;96.80;;
5710;SDS011;61291;52.524;13.422;2023-02-15T09:06:29;124.97;;;93.37;;
5710;SDS011;61291;52.524;13.422;2023-02-15T09:08:54;127.53;;;88.60;;
5710;SDS011;61291;52.524;13.422;2023-02-15T09:11:21;138.30;;;99.67;;
5710;SDS011;61291;52.524;13.422;2023-02-15T09:13:55;137.93;;;98.80;;
5710;SDS011;61291;52.524;13.422;2023-02-15T09:16:27;125.10;;;98.43;;
5710;SDS011;61291;52.524;13.422;2023-02-15T09:18:55;125.00;;;92.97;;
5710;SDS011;61291;52.524;13.422;2023-02-15T09:21:22;119.40;;;95.87;;
5710;SDS011;61291;52.524;13.422;2023-02-15T09:23:50;137.63;;;99.97;;
5710;SDS011;61291;52.524;13.422;2023-02-15T09:26:17;125.97;;;98.53;;
5710;SDS011;61291;52.524;13.422;2023-02-15T09:28:44;120.50;;;96.50;;
5710;SDS011;61291;52.524;13.422;2023-02-15T09:31:20;118.80;;;97.00;;
5710;SDS011;61291;52.524;13.422;2023-02-15T09:33:47;151.37;;;99.43;;
5710;SDS011;61291;52.524;13.422;2023-02-15T09:36:17;116.10;;;95.10;;
5710;SDS011;61291;52.524;13.422;2023-02-15T09:38:47;110.27;;;93.67;;
5710;SDS011;61291;52.524;13.422;2023-02-15T09:41:37;118.07;;;94.40;;
5710;SDS011;61291;52.524;13.422;2023-02-15T09:52:40;96.53;;;84.22;;
5710;SDS011;61291;52.524;13.422;2023-02-15T09:55:24;108.27;;;96.60;;
5710;SDS011;61291;52.524;13.422;2023-02-15T09:58:13;117.23;;;91.97;;
5710;SDS011;61291;52.524;13.422;2023-02-15T10:08:57;100.40;;;89.63;;
5710;SDS011;61291;52.524;13.422;2023-02-15T10:14:45;101.47;;;91.20;;
5710;SDS011;61291;52.524;13.422;2023-02-15T10:20:54;96.80;;;87.20;;
5710;SDS011;61291;52.524;13.422;2023-02-15T10:23:41;104.93;;;93.30;;
5710;SDS011;61291;52.524;13.422;2023-02-15T10:26:26;105.50;;;94.20;;
5710;SDS011;61291;52.524;13.422;2023-02-15T10:29:02;105.13;;;94.23;;
5710;SDS011;61291;52.524;13.422;2023-02-15T10:34:16;101.70;;;89.37;;
5710;SDS011;61291;52.524;13.422;2023-02-15T10:42:26;94.97;;;85.90;;
5710;SDS011;61291;52.524;13.422;2023-02-15T10:48:12;92.13;;;82.20;;
5710;SDS011;61291;52.524;13.422;2023-02-15T10:50:52;94.87;;;84.93;;
5710;SDS011;61291;52.524;13.422;2023-02-15T10:53:29;95.87;;;80.23;;
5710;SDS011;61291;52.524;13.422;2023-02-15T10:56:06;94.80;;;84.57;;
5710;SDS011;61291;52.524;13.422;2023-02-15T11:01:41;94.40;;;85.30;;
5710;SDS011;61291;52.524;13.422;2023-02-15T11:04:39;91.93;;;82.40;;
5710;SDS011;61291;52.524;13.422;2023-02-15T11:07:35;89.97;;;80.97;;
5710;SDS011;61291;52.524;13.422;2023-02-15T11:12:46;90.50;;;80.80;;
5710;SDS011;61291;52.524;13.422;2023-02-15T11:15:20;93.77;;;84.03;;
5710;SDS011;61291;52.524;13.422;2023-02-15T11:18:23;95.80;;;86.23;;
5710;SDS011;61291;52.524;13.422;2023-02-15T11:21:26;97.77;;;87.23;;
5710;SDS011;61291;52.524;13.422;2023-02-15T11:23:57;97.30;;;87.37;;
5710;SDS011;61291;52.524;13.422;2023-02-15T11:26:34;94.03;;;85.17;;
5710;SDS011;61291;52.524;13.422;2023-02-15T11:31:53;97.40;;;87.00;;
5710;SDS011;61291;52.524;13.422;2023-02-15T11:34:40;95.53;;;85.77;;
5710;SDS011;61291;52.524;13.422;2023-02-15T11:37:30;92.10;;;82.97;;
5710;SDS011;61291;52.524;13.422;2023-02-15T11:40:01;89.20;;;80.50;;
5710;SDS011;61291;52.524;13.422;2023-02-15T11:42:28;90.00;;;80.70;;
5710;SDS011;61291;52.524;13.422;2023-02-15T11:45:30;92.77;;;83.47;;
5710;SDS011;61291;52.524;13.422;2023-02-15T11:47:53;96.87;;;87.00;;
5710;SDS011;61291;52.524;13.422;2023-02-15T11:50:23;90.37;;;80.87;;
5710;SDS011;61291;52.524;13.422;2023-02-15T11:52:59;94.53;;;84.63;;
5710;SDS011;61291;52.524;13.422;2023-02-15T11:55:28;91.50;;;81.90;;
5710;SDS011;61291;52.524;13.422;2023-02-15T12:00:40;92.47;;;83.47;;
5710;SDS011;61291;52.524;13.422;2023-02-15T12:03:12;91.70;;;82.90;;
5710;SDS011;61291;52.524;13.422;2023-02-15T12:06:02;98.87;;;88.20;;
5710;SDS011;61291;52.524;13.422;2023-02-15T12:08:38;92.93;;;83.77;;
5710;SDS011;61291;52.524;13.422;2023-02-15T12:11:12;91.80;;;82.50;;
5710;SDS011;61291;52.524;13.422;2023-02-15T12:14:02;88.37;;;79.50;;
5710;SDS011;61291;52.524;13.422;2023-02-15T12:16:51;87.87;;;79.40;;
5710;SDS011;61291;52.524;13.422;2023-02-15T12:22:02;90.70;;;81.23;;
5710;SDS011;61291;52.524;13.422;2023-02-15T12:24:30;93.93;;;84.43;;
5710;SDS011;61291;52.524;13.422;2023-02-15T12:27:04;94.07;;;85.07;;
5710;SDS011;61291;52.524;13.422;2023-02-15T12:29:43;89.60;;;80.90;;
5710;SDS011;61291;52.524;13.422;2023-02-15T12:32:19;91.90;;;82.60;;
5710;SDS011;61291;52.524;13.422;2023-02-15T12:34:55;88.93;;;79.10;;
5710;SDS011;61291;52.524;13.422;2023-02-15T12:37:27;93.37;;;84.30;;
5710;SDS011;61291;52.524;13.422;2023-02-15T12:39:57;92.30;;;83.07;;
5710;SDS011;61291;52.524;13.422;2023-02-15T12:42:26;89.90;;;80.67;;
5710;SDS011;61291;52.524;13.422;2023-02-15T12:47:22;90.63;;;81.93;;
5710;SDS011;61291;52.524;13.422;2023-02-15T12:50:12;86.30;;;77.90;;
5710;SDS011;61291;52.524;13.422;2023-02-15T12:52:47;88.53;;;79.43;;
5710;SDS011;61291;52.524;13.422;2023-02-15T12:55:20;88.60;;;80.50;;
5710;SDS011;61291;52.524;13.422;2023-02-15T13:00:41;92.10;;;82.03;;
5710;SDS011;61291;52.524;13.422;2023-02-15T13:03:14;92.43;;;83.60;;
5710;SDS011;61291;52.524;13.422;2023-02-15T13:05:46;92.23;;;83.57;;
5710;SDS011;61291;52.524;13.422;2023-02-15T13:08:17;90.33;;;81.73;;
5710;SDS011;61291;52.524;13.422;2023-02-15T13:10:54;89.00;;;80.27;;
5710;SDS011;61291;52.524;13.422;2023-02-15T13:13:20;91.77;;;82.60;;
5710;SDS011;61291;52.524;13.422;2023-02-15T13:15:53;90.10;;;81.57;;
5710;SDS011;61291;52.524;13.422;2023-02-15T13:21:20;90.03;;;81.60;;
5710;SDS011;61291;52.524;13.422;2023-02-15T13:23:51;95.00;;;85.50;;
5710;SDS011;61291;52.524;13.422;2023-02-15T13:26:22;83.07;;;74.40;;
5710;SDS011;61291;52.524;13.422;2023-02-15T13:28:54;89.07;;;80.87;;
5710;SDS011;61291;52.524;13.422;2023-02-15T13:31:23;91.77;;;82.83;;
5710;SDS011;61291;52.524;13.422;2023-02-15T13:33:56;93.13;;;83.67;;
5710;SDS011;61291;52.524;13.422;2023-02-15T13:36:33;87.83;;;79.33;;
5710;SDS011;61291;52.524;13.422;2023-02-15T13:39:24;83.90;;;75.53;;
5710;SDS011;61291;52.524;13.422;2023-02-15T13:42:14;85.63;;;76.80;;
5710;SDS011;61291;52.524;13.422;2023-02-15T13:44:53;85.53;;;77.97;;
5710;SDS011;61291;52.524;13.422;2023-02-15T13:47:47;89.20;;;79.63;;
5710;SDS011;61291;52.524;13.422;2023-02-15T14:02:18;91.43;;;83.43;;
5710;SDS011;61291;52.524;13.422;2023-02-15T14:08:11;89.47;;;80.93;;
5710;SDS011;61291;52.524;13.422;2023-02-15T14:13:40;83.50;;;76.00;;
5710;SDS011;61291;52.524;13.422;2023-02-15T14:16:33;92.27;;;83.47;;
5710;SDS011;61291;52.524;13.422;2023-02-15T14:19:32;82.27;;;74.43;;
5710;SDS011;61291;52.524;13.422;2023-02-15T14:22:15;85.53;;;77.57;;
5710;SDS011;61291;52.524;13.422;2023-02-15T14:28:03;84.20;;;76.70;;
5710;SDS011;61291;52.524;13.422;2023-02-15T14:30:34;84.03;;;75.63;;
5710;SDS011;61291;52.524;13.422;2023-02-15T14:33:05;84.33;;;76.43;;
5710;SDS011;61291;52.524;13.422;2023-02-15T14:35:33;87.13;;;79.13;;
5710;SDS011;61291;52.524;13.422;2023-02-15T14:48:52;88.20;;;79.10;;
5710;SDS011;61291;52.524;13.422;2023-02-15T14:54:06;82.07;;;73.65;;
5710;SDS011;61291;52.524;13.422;2023-02-15T14:56:32;89.37;;;77.73;;
5710;SDS011;61291;52.524;13.422;2023-02-15T14:58:58;86.10;;;77.60;;
5710;SDS011;61291;52.524;13.422;2023-02-15T15:01:34;87.03;;;79.03;;
5710;SDS011;61291;52.524;13.422;2023-02-15T15:04:03;78.53;;;71.27;;
5710;SDS011;61291;52.524;13.422;2023-02-15T15:06:39;76.67;;;69.13;;
5710;SDS011;61291;52.524;13.422;2023-02-15T15:11:48;79.77;;;72.13;;
5710;SDS011;61291;52.524;13.422;2023-02-15T15:17:00;82.43;;;74.83;;
5710;SDS011;61291;52.524;13.422;2023-02-15T15:22:17;79.50;;;71.30;;
5710;SDS011;61291;52.524;13.422;2023-02-15T15:24:48;75.63;;;68.60;;
5710;SDS011;61291;52.524;13.422;2023-02-15T15:32:38;82.60;;;74.90;;
5710;SDS011;61291;52.524;13.422;2023-02-15T15:38:22;74.90;;;67.77;;
5710;SDS011;61291;52.524;13.422;2023-02-15T15:41:18;76.30;;;69.33;;
5710;SDS011;61291;52.524;13.422;2023-02-15T15:47:06;78.33;;;70.23;;
5710;SDS011;61291;52.524;13.422;2023-02-15T15:49:44;77.77;;;70.87;;
5710;SDS011;61291;52.524;13.422;2023-02-15T15:52:15;80.10;;;71.60;;
5710;SDS011;61291;52.524;13.422;2023-02-15T15:54:44;80.77;;;73.13;;
5710;SDS011;61291;52.524;13.422;2023-02-15T15:57:17;75.00;;;67.60;;
5710;SDS011;61291;52.524;13.422;2023-02-15T15:59:47;80.97;;;72.07;;
5710;SDS011;61291;52.524;13.422;2023-02-15T16:02:16;74.90;;;67.53;;
5710;SDS011;61291;52.524;13.422;2023-02-15T16:04:45;74.40;;;67.20;;
5710;SDS011;61291;52.524;13.422;2023-02-15T16:07:33;77.43;;;69.83;;
5710;SDS011;61291;52.524;13.422;2023-02-15T16:10:05;80.13;;;71.70;;
5710;SDS011;61291;52.524;13.422;2023-02-15T16:12:35;73.60;;;65.97;;
5710;SDS011;61291;52.524;13.422;2023-02-15T16:15:06;80.40;;;72.10;;
5710;SDS011;61291;52.524;13.422;2023-02-15T16:17:40;76.73;;;69.73;;
5710;SDS011;61291;52.524;13.422;2023-02-15T16:20:11;75.50;;;68.53;;
5710;SDS011;61291;52.524;13.422;2023-02-15T16:22:44;77.27;;;70.13;;
5710;SDS011;61291;52.524;13.422;2023-02-15T16:28:09;75.70;;;68.87;;
5710;SDS011;61291;52.524;13.422;2023-02-15T16:30:37;76.63;;;68.70;;
5710;SDS011;61291;52.524;13.422;2023-02-15T16:33:09;75.77;;;68.97;;
5710;SDS011;61291;52.524;13.422;2023-02-15T16:35:41;77.38;;;69.72;;
5710;SDS011;61291;52.524;13.422;2023-02-15T16:41:15;68.10;;;61.40;;
5710;SDS011;61291;52.524;13.422;2023-02-15T16:43:50;71.10;;;64.50;;